Time;durP1;ratioP1;P1;durP2;ratioP2;P2;SDS_P1;SDS_P2;PMS_P1;PMS_P2;Temp;Humidity;BMP_temperature;BMP_pressure;BME280_temperature;BME280_humidity;BME280_pressure;Samples;Min_cycle;Max_cycle;Signal;HPM_P1;HPM_P2
2023/04/08 00:02:32;;;;;;;18.80;12.90;;;;;;;6.61;87.49;100637.90;131259;1251;107631;-77
2023/04/08 00:05:38;;;;;;;20.10;13.20;;;;;;;6.62;87.40;100645.44;131280;1254;107514;-76
2023/04/08 00:08:43;;;;;;;19.90;13.20;;;;;;;6.65;87.43;100645.21;131178;1261;107516;-76
2023/04/08 00:11:49;;;;;;;21.00;14.60;;;;;;;6.67;87.09;100645.63;131205;1253;107408;-77
2023/04/08 00:14:54;;;;;;;21.10;14.60;;;;;;;6.65;87.11;100645.16;131386;1254;107469;-75
2023/04/08 00:18:00;;;;;;;21.40;14.70;;;;;;;6.65;87.22;100644.17;131266;1254;107520;-77
2023/04/08 00:21:06;;;;;;;20.70;14.50;;;;;;;6.62;87.31;100643.35;131086;1251;107203;-77
2023/04/08 00:24:12;;;;;;;21.10;14.40;;;;;;;6.60;87.25;100650.41;131164;1252;108663;-79
2023/04/08 00:27:17;;;;;;;19.30;13.00;;;;;;;6.56;87.18;100647.67;131087;1251;107492;-77
2023/04/08 00:30:22;;;;;;;19.70;12.70;;;;;;;6.54;87.32;100648.17;131134;1254;108488;-77
2023/04/08 00:33:28;;;;;;;23.70;14.00;;;;;;;6.55;87.37;100648.45;131058;1254;109443;-77
2023/04/08 00:36:35;;;;;;;24.70;14.80;;;;;;;6.56;86.96;100648.70;131191;1253;107545;-76
2023/04/08 00:39:40;;;;;;;23.10;15.10;;;;;;;6.56;86.97;100651.55;130977;1264;107436;-75
2023/04/08 00:42:45;;;;;;;22.20;14.00;;;;;;;6.56;87.29;100650.15;131219;1251;107480;-78
2023/04/08 00:45:51;;;;;;;22.20;14.90;;;;;;;6.55;87.29;100654.66;131265;1248;107495;-76
2023/04/08 00:48:57;;;;;;;21.10;14.00;;;;;;;6.53;87.48;100657.64;131209;1254;106646;-77
2023/04/08 00:52:02;;;;;;;17.20;11.80;;;;;;;6.52;87.43;100654.20;131109;1254;107549;-74
2023/04/08 00:55:09;;;;;;;15.80;10.70;;;;;;;6.51;86.96;100654.60;131368;1261;107940;-76
2023/04/08 00:58:15;;;;;;;18.40;12.00;;;;;;;6.52;87.23;100659.11;131432;1255;107534;-77
2023/04/08 01:01:29;;;;;;;18.30;11.50;;;;;;;6.55;87.01;100666.85;131239;1254;107524;-77
2023/04/08 01:04:44;;;;;;;16.00;11.10;;;;;;;6.57;87.31;100665.33;131228;1250;107522;-77
2023/04/08 01:07:50;;;;;;;16.60;11.90;;;;;;;6.57;87.04;100670.38;131201;1253;107571;-76
2023/04/08 01:11:01;;;;;;;18.50;11.70;;;;;;;6.58;86.78;100667.33;131213;1254;107533;-76
2023/04/08 01:14:09;;;;;;;17.60;11.60;;;;;;;6.55;86.54;100672.30;131208;1254;106429;-76
2023/04/08 01:17:15;;;;;;;17.60;12.00;;;;;;;6.52;86.67;100673.60;131260;1254;107271;-78
2023/04/08 01:20:21;;;;;;;14.80;10.20;;;;;;;6.48;86.60;100678.14;131263;1253;107955;-77
2023/04/08 01:23:44;;;;;;;13.20;9.00;;;;;;;6.42;86.70;100677.36;131129;1254;107252;-76
2023/04/08 01:26:50;;;;;;;16.90;10.50;;;;;;;6.41;86.76;100679.59;131289;1251;107255;-76
2023/04/08 01:29:58;;;;;;;14.30;9.90;;;;;;;6.43;86.85;100682.59;131408;1250;107517;-76
2023/04/08 01:33:05;;;;;;;15.70;10.70;;;;;;;6.45;86.59;100687.02;131212;1251;107284;-76
2023/04/08 01:36:11;;;;;;;15.70;11.80;;;;;;;6.43;86.53;100686.81;131240;1253;107578;-76
2023/04/08 01:39:18;;;;;;;16.50;11.60;;;;;;;6.42;86.29;100688.87;131094;1253;107336;-76
2023/04/08 01:42:28;;;;;;;16.50;11.60;;;;;;;6.38;86.38;100692.52;131164;1254;107498;-77
2023/04/08 01:45:34;;;;;;;16.00;11.40;;;;;;;6.34;86.22;100697.61;131174;1248;107505;-77
2023/04/08 01:48:40;;;;;;;16.20;10.40;;;;;;;6.29;86.15;100700.23;131115;1254;107585;-75
2023/04/08 01:51:46;;;;;;;15.00;9.70;;;;;;;6.26;86.12;100700.51;131237;1257;106537;-75
2023/04/08 01:54:52;;;;;;;15.20;10.20;;;;;;;6.21;86.33;100700.54;131029;1253;107275;-74
2023/04/08 01:58:01;;;;;;;15.60;10.60;;;;;;;6.23;86.19;100701.02;131471;1253;105808;-75
2023/04/08 02:01:10;;;;;;;16.40;11.20;;;;;;;6.27;86.15;100702.72;131201;1254;107568;-74
2023/04/08 02:04:16;;;;;;;15.70;10.90;;;;;;;6.29;85.63;100705.21;131083;1258;107411;-77
2023/04/08 02:07:24;;;;;;;16.30;11.20;;;;;;;6.27;85.74;100706.73;130961;1254;107410;-77
2023/04/08 02:10:29;;;;;;;15.50;11.30;;;;;;;6.26;85.68;100705.21;131018;1254;107519;-77
2023/04/08 02:13:35;;;;;;;16.90;11.70;;;;;;;6.25;85.61;100702.32;131027;1254;107610;-77
2023/04/08 02:16:50;;;;;;;15.90;11.40;;;;;;;6.23;85.23;100705.45;131033;1251;107430;-76
2023/04/08 02:20:00;;;;;;;15.90;11.00;;;;;;;6.19;85.23;100704.66;131244;1250;108644;-76
2023/04/08 02:23:10;;;;;;;14.10;9.40;;;;;;;6.10;85.35;100707.81;131007;1251;107540;-77
2023/04/08 02:26:17;;;;;;;14.00;9.30;;;;;;;6.07;85.13;100707.14;130943;1256;107496;-77
2023/04/08 02:29:24;;;;;;;14.20;9.80;;;;;;;6.11;85.50;100708.14;131136;1254;107546;-77
2023/04/08 02:32:33;;;;;;;15.50;10.70;;;;;;;6.16;85.23;100709.54;131095;1262;107660;-77
2023/04/08 02:35:40;;;;;;;13.60;10.50;;;;;;;6.21;85.30;100712.88;130958;1254;107530;-76
2023/04/08 02:38:50;;;;;;;15.50;11.10;;;;;;;6.22;84.99;100719.16;131136;1254;107387;-76
2023/04/08 02:41:56;;;;;;;14.10;11.00;;;;;;;6.21;85.41;100721.68;131295;1251;108096;-77
2023/04/08 02:45:01;;;;;;;16.20;11.50;;;;;;;6.23;85.16;100722.45;131213;1254;107510;-77
2023/04/08 02:48:08;;;;;;;16.10;12.20;;;;;;;6.22;84.89;100721.27;131358;1254;107347;-75
2023/04/08 02:51:13;;;;;;;15.90;11.60;;;;;;;6.20;84.86;100725.67;131400;1249;107508;-75
2023/04/08 02:54:19;;;;;;;15.50;10.50;;;;;;;6.17;84.99;100726.38;131045;1264;107943;-75
2023/04/08 02:57:24;;;;;;;14.70;10.20;;;;;;;6.15;85.11;100733.42;131520;1255;106412;-75
2023/04/08 03:00:30;;;;;;;16.30;10.90;;;;;;;6.16;85.43;100742.71;131131;1250;107439;-75
2023/04/08 03:03:35;;;;;;;18.70;11.20;;;;;;;6.21;84.94;100745.38;131302;1250;105976;-78
2023/04/08 03:06:41;;;;;;;52.20;32.60;;;;;;;6.25;85.09;100745.23;131222;1253;107543;-76
2023/04/08 03:09:46;;;;;;;24.30;15.70;;;;;;;6.27;84.89;100751.13;131323;1253;106055;-76
2023/04/08 03:12:52;;;;;;;19.10;13.00;;;;;;;6.26;84.54;100753.63;131187;1257;106878;-77
2023/04/08 03:15:57;;;;;;;18.30;12.80;;;;;;;6.25;85.01;100760.80;131331;1253;107650;-76
2023/04/08 03:19:03;;;;;;;18.60;13.10;;;;;;;6.24;84.54;100761.92;131458;1253;107677;-77
2023/04/08 03:22:09;;;;;;;18.50;14.00;;;;;;;6.21;84.78;100763.16;131277;1263;107512;-77
2023/04/08 03:25:14;;;;;;;20.10;14.30;;;;;;;6.18;84.49;100765.17;131347;1248;108112;-75
2023/04/08 03:28:20;;;;;;;16.10;11.10;;;;;;;6.16;84.51;100768.86;131450;1253;107632;-77
2023/04/08 03:31:26;;;;;;;15.60;10.70;;;;;;;6.15;84.50;100773.23;131284;1254;108736;-77
2023/04/08 03:34:31;;;;;;;15.20;11.20;;;;;;;6.13;84.48;100775.31;131420;1253;108174;-76
2023/04/08 03:37:36;;;;;;;18.70;12.40;;;;;;;6.16;84.67;100780.84;131421;1250;107374;-76
2023/04/08 03:40:42;;;;;;;16.90;12.60;;;;;;;6.17;84.33;100781.84;131176;1255;107526;-74
2023/04/08 03:43:47;;;;;;;18.60;12.70;;;;;;;6.17;84.34;100785.77;131265;1252;106552;-76
2023/04/08 03:46:53;;;;;;;21.10;15.30;;;;;;;6.19;84.71;100788.83;131226;1248;107267;-76
2023/04/08 03:49:58;;;;;;;23.40;16.20;;;;;;;6.20;84.07;100793.16;131428;1251;105974;-76
2023/04/08 03:53:04;;;;;;;27.80;17.70;;;;;;;6.21;83.98;100796.59;131446;1254;105738;-76
2023/04/08 03:56:10;;;;;;;28.80;17.70;;;;;;;6.20;84.08;100799.65;131400;1254;107560;-75
2023/04/08 03:59:15;;;;;;;30.20;17.00;;;;;;;6.15;83.90;100801.95;131456;1248;107372;-76
2023/04/08 04:02:20;;;;;;;19.80;12.30;;;;;;;6.14;84.15;100804.87;131406;1253;106249;-76
2023/04/08 04:05:26;;;;;;;17.50;10.30;;;;;;;6.13;83.99;100809.20;131233;1253;106641;-76
2023/04/08 04:08:31;;;;;;;17.40;12.00;;;;;;;6.14;84.04;100808.58;131295;1254;106728;-77
2023/04/08 04:11:37;;;;;;;18.00;11.40;;;;;;;6.14;83.87;100811.94;131403;1253;107530;-76
2023/04/08 04:14:42;;;;;;;17.20;12.20;;;;;;;6.17;84.00;100818.64;131436;1253;108675;-77
2023/04/08 04:17:50;;;;;;;21.10;13.30;;;;;;;6.18;83.81;100816.94;131429;1253;108742;-76
2023/04/08 04:20:56;;;;;;;21.30;13.60;;;;;;;6.17;83.75;100822.30;131197;1250;105554;-76
2023/04/08 04:24:01;;;;;;;20.70;13.80;;;;;;;6.15;83.86;100828.27;131299;1251;107534;-77
2023/04/08 04:27:07;;;;;;;20.50;13.70;;;;;;;6.16;84.02;100826.44;131286;1251;107615;-76
2023/04/08 04:30:14;;;;;;;23.10;15.00;;;;;;;6.15;83.84;100831.45;131307;1250;107514;-76
2023/04/08 04:33:20;;;;;;;21.00;14.20;;;;;;;6.15;83.95;100833.41;131234;1254;105477;-76
2023/04/08 04:36:26;;;;;;;21.60;14.30;;;;;;;6.13;83.56;100837.63;131203;1249;107267;-76
2023/04/08 04:39:31;;;;;;;21.00;12.40;;;;;;;6.08;83.90;100842.16;131169;1248;107502;-77
2023/04/08 04:42:37;;;;;;;19.60;12.00;;;;;;;6.06;83.88;100844.64;131351;1253;107543;-75
2023/04/08 04:45:43;;;;;;;19.20;12.70;;;;;;;6.07;83.89;100847.58;131440;1251;106239;-76
2023/04/08 04:48:50;;;;;;;19.20;12.50;;;;;;;6.11;83.90;100852.61;131688;1253;106605;-75
2023/04/08 04:51:55;;;;;;;20.40;13.40;;;;;;;6.16;83.96;100856.15;131359;1252;107253;-77
2023/04/08 04:55:01;;;;;;;20.80;14.20;;;;;;;6.24;83.93;100856.61;131213;1253;107503;-77
2023/04/08 04:58:06;;;;;;;23.00;14.80;;;;;;;6.34;83.45;100859.45;131328;1248;107198;-75
2023/04/08 05:01:11;;;;;;;19.80;12.30;;;;;;;6.39;83.55;100862.12;131453;1253;107515;-75
2023/04/08 05:04:17;;;;;;;16.80;12.30;;;;;;;6.41;83.13;100864.73;131463;1251;107522;-75
2023/04/08 05:07:22;;;;;;;15.70;12.00;;;;;;;6.42;83.02;100867.52;131117;1253;107631;-77
2023/04/08 05:10:28;;;;;;;17.50;12.20;;;;;;;6.48;82.80;100864.98;131342;1253;107644;-78
2023/04/08 05:13:35;;;;;;;16.00;11.40;;;;;;;6.53;82.93;100868.48;131174;1251;107467;-78
2023/04/08 05:16:40;;;;;;;17.40;12.30;;;;;;;6.55;82.57;100868.52;131285;1248;107460;-77
2023/04/08 05:19:46;;;;;;;15.50;10.60;;;;;;;6.59;82.69;100869.86;131251;1253;107454;-77
2023/04/08 05:22:52;;;;;;;14.10;9.20;;;;;;;6.64;82.60;100871.73;131241;1253;107537;-75
2023/04/08 05:25:57;;;;;;;16.50;11.30;;;;;;;6.70;82.54;100870.05;131226;1250;107538;-76
2023/04/08 05:29:02;;;;;;;18.10;11.90;;;;;;;6.75;82.06;100875.36;131206;1254;107302;-77
2023/04/08 05:32:08;;;;;;;17.00;11.80;;;;;;;6.76;82.07;100873.17;131183;1253;107502;-77
2023/04/08 05:35:14;;;;;;;18.00;12.30;;;;;;;6.74;82.19;100871.61;131338;1253;108700;-77
2023/04/08 05:38:19;;;;;;;18.60;12.40;;;;;;;6.71;82.05;100870.90;131351;1252;107393;-77
2023/04/08 05:41:24;;;;;;;18.00;12.10;;;;;;;6.68;81.84;100873.92;131221;1250;105455;-77
2023/04/08 05:44:30;;;;;;;19.40;12.80;;;;;;;6.64;82.04;100878.27;131289;1253;108845;-75
2023/04/08 05:47:35;;;;;;;18.50;13.30;;;;;;;6.59;81.55;100876.16;131276;1248;107528;-75
2023/04/08 05:50:41;;;;;;;17.00;12.40;;;;;;;6.57;81.92;100879.68;131407;1248;107199;-77
2023/04/08 05:53:47;;;;;;;17.50;12.90;;;;;;;6.58;81.68;100882.81;131210;1263;108102;-77
2023/04/08 05:56:53;;;;;;;16.70;12.80;;;;;;;6.58;81.56;100879.77;131257;1248;107447;-76
2023/04/08 05:59:58;;;;;;;20.90;14.10;;;;;;;6.57;81.68;100884.98;131354;1253;107474;-76
2023/04/08 06:03:04;;;;;;;17.50;13.40;;;;;;;6.55;81.32;100886.00;131168;1251;107619;-76
2023/04/08 06:06:12;;;;;;;19.60;12.30;;;;;;;6.56;81.22;100889.66;131210;1253;108065;-76
2023/04/08 06:09:17;;;;;;;13.90;9.60;;;;;;;6.52;80.78;100890.48;131302;1253;107207;-77
2023/04/08 06:12:23;;;;;;;15.40;10.00;;;;;;;6.51;81.10;100892.70;131236;1253;107448;-76
2023/04/08 06:15:28;;;;;;;14.60;11.00;;;;;;;6.53;80.89;100893.04;131164;1253;107511;-77
2023/04/08 06:18:34;;;;;;;16.30;11.60;;;;;;;6.59;80.89;100896.18;131243;1253;107634;-77
2023/04/08 06:21:39;;;;;;;16.70;11.90;;;;;;;6.65;80.76;100896.77;131216;1250;106388;-77
2023/04/08 06:24:46;;;;;;;17.60;13.60;;;;;;;6.67;80.12;100899.77;131257;1251;107354;-76
2023/04/08 06:27:52;;;;;;;16.30;12.90;;;;;;;6.71;80.38;100901.13;131346;1253;107613;-76
2023/04/08 06:30:57;;;;;;;18.10;13.20;;;;;;;6.73;79.92;100904.00;131436;1253;107561;-76
2023/04/08 06:34:03;;;;;;;19.30;13.70;;;;;;;6.76;80.12;100906.05;131505;1250;107238;-77
2023/04/08 06:37:08;;;;;;;17.70;13.10;;;;;;;6.79;80.06;100913.27;131394;1253;106760;-80
2023/04/08 06:40:14;;;;;;;18.40;13.60;;;;;;;6.81;79.95;100914.52;131195;1248;106492;-77
2023/04/08 06:43:19;;;;;;;21.00;14.30;;;;;;;6.83;79.84;100918.97;131161;1251;107428;-77
2023/04/08 06:46:26;;;;;;;18.00;12.80;;;;;;;6.84;79.67;100920.50;131152;1251;107566;-75
2023/04/08 06:49:31;;;;;;;17.40;12.70;;;;;;;6.86;79.69;100921.80;131325;1253;108101;-76
2023/04/08 06:52:37;;;;;;;16.40;11.80;;;;;;;6.89;79.08;100924.04;131169;1248;107594;-76
2023/04/08 06:55:42;;;;;;;16.70;12.20;;;;;;;6.90;79.42;100927.34;131116;1253;107576;-75
2023/04/08 06:58:48;;;;;;;16.50;12.10;;;;;;;6.94;79.41;100931.43;131194;1251;107344;-75
2023/04/08 07:01:53;;;;;;;14.00;10.30;;;;;;;6.99;79.45;100938.30;131359;1253;107481;-75
2023/04/08 07:04:58;;;;;;;12.90;8.70;;;;;;;7.05;79.00;100942.13;131284;1253;107268;-74
2023/04/08 07:08:04;;;;;;;16.30;11.90;;;;;;;7.09;78.89;100942.89;131189;1253;107375;-73
2023/04/08 07:11:10;;;;;;;15.40;10.80;;;;;;;7.20;78.96;100945.08;131204;1248;107503;-74
2023/04/08 07:14:15;;;;;;;18.10;12.10;;;;;;;7.32;78.64;100944.23;131141;1253;108427;-75
2023/04/08 07:17:21;;;;;;;18.60;14.00;;;;;;;7.40;78.53;100942.71;131181;1253;107383;-75
2023/04/08 07:20:26;;;;;;;16.50;12.10;;;;;;;7.48;79.00;100943.35;131211;1251;107215;-73
2023/04/08 07:23:31;;;;;;;16.20;12.40;;;;;;;7.57;78.56;100946.55;131293;1253;107509;-74
2023/04/08 07:26:38;;;;;;;15.30;11.40;;;;;;;7.64;78.38;100947.61;131356;1251;107328;-74
2023/04/08 07:29:43;;;;;;;17.50;11.90;;;;;;;7.69;78.28;100945.67;131134;1253;107206;-75
2023/04/08 07:32:48;;;;;;;16.30;11.70;;;;;;;7.76;78.32;100946.73;131188;1253;108626;-74
2023/04/08 07:35:54;;;;;;;13.70;10.50;;;;;;;7.79;78.04;100949.65;131218;1250;109331;-74
2023/04/08 07:38:59;;;;;;;14.60;11.20;;;;;;;7.78;77.33;100949.35;131246;1253;108674;-73
2023/04/08 07:42:05;;;;;;;14.90;11.60;;;;;;;7.80;77.85;100949.74;131076;1253;109110;-77
2023/04/08 07:45:12;;;;;;;13.30;10.70;;;;;;;7.87;77.96;100942.54;131188;1250;107457;-74
2023/04/08 07:48:17;;;;;;;15.30;11.40;;;;;;;7.92;77.41;100946.75;131322;1250;107476;-75
2023/04/08 07:51:22;;;;;;;13.90;10.90;;;;;;;7.96;76.98;100945.02;131157;1248;109175;-74
2023/04/08 07:54:28;;;;;;;16.00;11.50;;;;;;;7.99;77.24;100942.98;131160;1253;107714;-74
2023/04/08 07:57:33;;;;;;;14.30;11.10;;;;;;;8.06;77.22;100948.66;131239;1247;107522;-74
2023/04/08 08:00:39;;;;;;;15.20;11.10;;;;;;;8.12;77.14;100944.85;131341;1253;107572;-73
2023/04/08 08:03:46;;;;;;;14.70;11.10;;;;;;;8.17;77.03;100946.03;131319;1250;108376;-73
2023/04/08 08:06:51;;;;;;;12.50;10.00;;;;;;;8.22;77.18;100948.07;131283;1251;107438;-77
2023/04/08 08:09:57;;;;;;;14.00;10.50;;;;;;;8.30;76.93;100949.11;131260;1251;107564;-73
2023/04/08 08:13:02;;;;;;;12.70;9.80;;;;;;;8.33;76.20;100944.59;131479;1253;107494;-72
2023/04/08 08:16:10;;;;;;;13.80;11.20;;;;;;;8.32;75.89;100944.69;131523;1251;107315;-74
2023/04/08 08:19:15;;;;;;;12.20;9.90;;;;;;;8.39;76.01;100947.27;131235;1253;107205;-73
2023/04/08 08:22:21;;;;;;;14.00;10.70;;;;;;;8.42;75.20;100951.16;131306;1251;107541;-74
2023/04/08 08:25:26;;;;;;;13.80;10.50;;;;;;;8.41;74.24;100951.27;131249;1253;107652;-73
2023/04/08 08:28:31;;;;;;;13.60;9.50;;;;;;;8.41;75.46;100947.36;131187;1253;107607;-72
2023/04/08 08:31:37;;;;;;;12.00;9.20;;;;;;;8.51;76.36;100941.44;131156;1253;107497;-73
2023/04/08 08:34:42;;;;;;;10.90;8.30;;;;;;;8.61;76.11;100938.61;131155;1253;107434;-73
2023/04/08 08:37:48;;;;;;;13.70;10.00;;;;;;;8.71;75.21;100942.48;131171;1253;107666;-74
2023/04/08 08:40:57;;;;;;;18.60;13.00;;;;;;;8.79;75.57;100942.02;131116;1253;108022;-72
2023/04/08 08:44:05;;;;;;;13.60;9.70;;;;;;;8.92;75.70;100940.61;131174;1251;107478;-74
2023/04/08 08:47:10;;;;;;;14.40;10.60;;;;;;;9.04;75.51;100942.81;131168;1253;107529;-74
2023/04/08 08:50:16;;;;;;;16.10;11.40;;;;;;;9.12;75.31;100940.73;131224;1253;107582;-74
2023/04/08 08:53:22;;;;;;;12.70;9.80;;;;;;;9.14;73.80;100946.61;131340;1253;107526;-74
2023/04/08 08:56:28;;;;;;;13.40;10.30;;;;;;;9.15;74.45;100941.73;131150;1253;107521;-73
2023/04/08 08:59:33;;;;;;;12.60;9.90;;;;;;;9.23;74.81;100947.34;131124;1252;107459;-74
2023/04/08 09:02:39;;;;;;;11.00;9.20;;;;;;;9.32;74.84;100952.39;131208;1253;107570;-73
2023/04/08 09:05:52;;;;;;;10.80;8.10;;;;;;;9.42;74.56;100949.92;131306;1253;108233;-73
2023/04/08 09:08:57;;;;;;;12.50;9.70;;;;;;;9.86;79.45;100945.75;131301;1254;107485;-74
2023/04/08 09:12:05;;;;;;;11.60;8.50;;;;;;;10.33;75.54;100939.88;131120;1250;107648;-73
2023/04/08 09:15:11;;;;;;;16.30;10.80;;;;;;;10.23;71.16;100942.65;131421;1255;107538;-73
2023/04/08 09:18:24;;;;;;;11.40;8.00;;;;;;;10.18;72.70;100946.36;131449;1253;107620;-73
2023/04/08 09:21:30;;;;;;;12.40;9.80;;;;;;;10.42;72.33;100942.54;131162;1250;108674;-73
2023/04/08 09:24:36;;;;;;;14.00;11.10;;;;;;;10.33;70.43;100941.20;131204;1253;107399;-76
2023/04/08 09:27:42;;;;;;;10.70;9.00;;;;;;;10.17;69.55;100946.08;131381;1253;107645;-72
2023/04/08 09:30:47;;;;;;;14.90;10.50;;;;;;;10.05;71.10;100947.65;131266;1253;106670;-73
2023/04/08 09:33:55;;;;;;;13.60;9.50;;;;;;;10.07;72.18;100950.16;131197;1253;106031;-73
2023/04/08 09:37:01;;;;;;;11.00;8.90;;;;;;;10.17;73.40;100945.91;132611;1250;107648;-73
2023/04/08 09:40:09;;;;;;;15.40;10.50;;;;;;;10.36;73.38;100944.60;131795;1251;106254;-73
2023/04/08 09:43:15;;;;;;;15.00;11.80;;;;;;;10.59;73.60;100944.77;131139;1248;107552;-72
2023/04/08 09:46:29;;;;;;;11.20;9.00;;;;;;;10.89;72.13;100940.80;131323;1253;107235;-72
2023/04/08 09:49:42;;;;;;;9.40;8.20;;;;;;;10.83;69.56;100945.27;131464;1253;107391;-71
2023/04/08 09:52:53;;;;;;;12.80;9.40;;;;;;;10.75;72.12;100941.88;131437;1251;107350;-71
2023/04/08 09:56:00;;;;;;;13.00;10.10;;;;;;;10.76;68.72;100940.41;131413;1253;105978;-72
2023/04/08 09:59:16;;;;;;;13.20;10.60;;;;;;;10.78;72.27;100941.45;131434;1253;105490;-73
2023/04/08 10:02:29;;;;;;;18.40;13.10;;;;;;;11.08;73.02;100942.67;131161;1253;106105;-73
2023/04/08 10:05:40;;;;;;;12.40;10.60;;;;;;;11.06;68.24;100944.98;131213;1251;106511;-71
2023/04/08 10:08:46;;;;;;;10.30;8.70;;;;;;;10.93;70.50;100939.71;131451;1253;107517;-71
2023/04/08 10:11:52;;;;;;;11.30;9.10;;;;;;;10.79;69.42;100938.48;131383;1250;107485;-71
2023/04/08 10:15:28;;;;;;;16.80;11.80;;;;;;;10.73;70.42;100941.52;131414;1252;106687;-71
2023/04/08 10:18:35;;;;;;;10.90;9.00;;;;;;;10.93;71.68;100940.15;131269;1253;107336;-72
2023/04/08 10:21:46;;;;;;;11.80;9.50;;;;;;;11.03;69.16;100946.88;131223;1253;105713;-72
2023/04/08 10:25:24;;;;;;;10.50;9.10;;;;;;;10.91;67.68;100944.01;131137;1250;107242;-72
2023/04/08 10:28:29;;;;;;;12.90;9.30;;;;;;;10.92;68.65;100943.71;131259;1253;107270;-73
2023/04/08 10:31:41;;;;;;;11.70;8.80;;;;;;;11.01;68.25;100939.52;131611;1252;107519;-72
2023/04/08 10:34:55;;;;;;;11.40;9.70;;;;;;;11.16;69.68;100938.73;131547;1253;107437;-72
2023/04/08 10:38:01;;;;;;;11.30;9.40;;;;;;;11.37;69.70;100938.96;131387;1262;107493;-72
2023/04/08 10:41:07;;;;;;;12.30;9.30;;;;;;;11.51;69.47;100935.17;131454;1253;106804;-73
2023/04/08 10:44:19;;;;;;;9.90;8.60;;;;;;;11.66;69.98;100931.81;131452;1252;107531;-73
2023/04/08 10:47:28;;;;;;;10.80;9.00;;;;;;;11.69;69.84;100930.25;131469;1253;107555;-72
2023/04/08 10:50:34;;;;;;;11.50;9.50;;;;;;;11.61;69.13;100934.58;131582;1250;107439;-73
2023/04/08 10:53:40;;;;;;;11.70;9.70;;;;;;;11.51;69.53;100935.58;131403;1254;107481;-73
2023/04/08 10:56:51;;;;;;;9.30;8.20;;;;;;;11.39;69.37;100939.98;131438;1253;107490;-72
2023/04/08 10:59:56;;;;;;;11.70;10.00;;;;;;;11.42;69.80;100934.75;131377;1253;106676;-72
2023/04/08 11:03:04;;;;;;;11.20;9.20;;;;;;;11.44;69.68;100939.27;131241;1253;107348;-72
2023/04/08 11:06:10;;;;;;;10.30;8.80;;;;;;;11.45;69.66;100932.88;131594;1251;107985;-72
2023/04/08 11:09:17;;;;;;;11.60;9.30;;;;;;;11.48;69.43;100932.76;131680;1250;107495;-71
2023/04/08 11:12:22;;;;;;;10.30;9.10;;;;;;;11.53;69.17;100934.05;131498;1252;108614;-72
2023/04/08 11:15:30;;;;;;;11.60;10.20;;;;;;;11.62;68.47;100931.80;131581;1253;107530;-71
2023/04/08 11:18:37;;;;;;;10.50;9.20;;;;;;;11.72;68.43;100933.55;131274;1253;106574;-71
2023/04/08 11:21:43;;;;;;;12.30;9.40;;;;;;;11.80;68.95;100932.31;131356;1254;107375;-72
2023/04/08 11:24:49;;;;;;;12.60;9.30;;;;;;;11.88;67.97;100926.38;131413;1248;107402;-71
2023/04/08 11:27:55;;;;;;;9.50;7.80;;;;;;;11.94;68.19;100929.23;131422;1262;107518;-71
2023/04/08 11:31:02;;;;;;;8.90;8.00;;;;;;;12.05;67.56;100921.58;131437;1253;107233;-71
2023/04/08 11:34:08;;;;;;;9.70;8.60;;;;;;;12.20;67.82;100919.59;131576;1253;107283;-72
2023/04/08 11:37:13;;;;;;;9.30;8.20;;;;;;;12.39;67.67;100912.27;131412;1253;107530;-71
2023/04/08 11:40:23;;;;;;;9.20;8.10;;;;;;;12.69;67.06;100906.00;131523;1253;107483;-73
2023/04/08 11:43:28;;;;;;;9.40;8.40;;;;;;;12.97;67.16;100909.23;131339;1249;107510;-71
2023/04/08 11:46:35;;;;;;;8.90;7.90;;;;;;;13.17;66.75;100907.56;131615;1252;107341;-71
2023/04/08 11:49:47;;;;;;;9.60;8.00;;;;;;;13.38;66.14;100902.90;131213;1254;108543;-71
2023/04/08 11:52:54;;;;;;;9.60;8.10;;;;;;;13.55;66.58;100902.17;131314;1251;107511;-71
2023/04/08 11:56:15;;;;;;;8.80;7.80;;;;;;;13.65;66.80;100901.98;131202;1253;107327;-70
2023/04/08 11:59:21;;;;;;;10.00;8.30;;;;;;;13.57;66.26;100904.01;131186;1253;107346;-71
2023/04/08 12:02:26;;;;;;;7.80;7.00;;;;;;;13.41;66.08;100903.27;131179;1251;107438;-71
2023/04/08 12:05:31;;;;;;;7.90;7.00;;;;;;;13.27;66.02;100897.45;131188;1254;107181;-71
2023/04/08 12:08:37;;;;;;;9.00;7.30;;;;;;;13.17;65.98;100895.61;131308;1250;107173;-71
2023/04/08 12:11:44;;;;;;;7.90;7.10;;;;;;;13.17;65.39;100897.48;131478;1252;107453;-73
2023/04/08 12:14:49;;;;;;;7.10;6.40;;;;;;;13.19;65.79;100895.69;131266;1253;107412;-72
2023/04/08 12:17:55;;;;;;;7.60;6.80;;;;;;;13.18;61.55;100892.85;131454;1253;106288;-71
2023/04/08 12:21:00;;;;;;;8.10;7.20;;;;;;;13.12;60.82;100889.68;131372;1262;107352;-71
2023/04/08 12:24:06;;;;;;;8.40;7.60;;;;;;;13.26;63.92;100888.16;131281;1253;107047;-72
2023/04/08 12:27:11;;;;;;;11.30;10.10;;;;;;;13.48;64.33;100881.66;131393;1248;107534;-71
2023/04/08 12:30:17;;;;;;;7.80;7.00;;;;;;;13.64;63.38;100885.34;131291;1253;108524;-71
2023/04/08 12:33:22;;;;;;;10.90;8.50;;;;;;;13.63;63.71;100880.98;131169;1260;107496;-71
2023/04/08 12:36:28;;;;;;;9.40;7.40;;;;;;;13.59;63.16;100883.23;131245;1253;107549;-71
2023/04/08 12:39:33;;;;;;;9.10;6.60;;;;;;;13.60;63.23;100880.29;131438;1253;107486;-71
2023/04/08 12:42:39;;;;;;;8.00;7.20;;;;;;;13.68;63.50;100875.82;131256;1253;107378;-72
2023/04/08 12:45:44;;;;;;;7.50;6.60;;;;;;;13.86;63.42;100875.11;131443;1251;107502;-71
2023/04/08 12:48:50;;;;;;;7.00;6.20;;;;;;;14.02;63.29;100872.05;131354;1253;106412;-72
2023/04/08 12:51:55;;;;;;;7.30;6.60;;;;;;;14.16;62.70;100869.83;131425;1253;107546;-73
2023/04/08 12:55:01;;;;;;;8.00;7.00;;;;;;;14.28;60.95;100864.95;131476;1253;107535;-70
2023/04/08 12:58:06;;;;;;;7.10;6.30;;;;;;;14.32;62.17;100865.13;131458;1253;107613;-71
2023/04/08 13:01:12;;;;;;;8.10;7.10;;;;;;;14.33;62.55;100861.03;131325;1253;107611;-70
2023/04/08 13:04:18;;;;;;;8.70;7.20;;;;;;;14.31;60.99;100861.45;131317;1253;107601;-70
2023/04/08 13:07:24;;;;;;;7.80;6.80;;;;;;;14.18;61.21;100867.29;131171;1253;107337;-70
2023/04/08 13:10:29;;;;;;;8.20;7.30;;;;;;;14.05;61.43;100863.95;131197;1251;107560;-71
2023/04/08 13:13:35;;;;;;;8.40;7.50;;;;;;;13.87;60.92;100861.88;131194;1252;106674;-71
2023/04/08 13:16:41;;;;;;;9.10;8.10;;;;;;;13.61;59.56;100868.70;131227;1253;107527;-72
2023/04/08 13:19:48;;;;;;;8.60;7.40;;;;;;;13.39;60.98;100869.01;131505;1253;107482;-71
2023/04/08 13:22:54;;;;;;;8.80;7.70;;;;;;;13.22;60.36;100866.98;131599;1249;106983;-71
2023/04/08 13:25:59;;;;;;;9.00;7.50;;;;;;;13.00;59.00;100866.06;131534;1253;107558;-73
2023/04/08 13:29:05;;;;;;;7.90;6.80;;;;;;;12.86;60.77;100864.80;131312;1252;107196;-73
2023/04/08 13:32:11;;;;;;;8.40;7.40;;;;;;;12.84;61.07;100861.65;131167;1253;107498;-71
2023/04/08 13:35:16;;;;;;;11.40;8.80;;;;;;;12.85;60.39;100858.12;131178;1253;107528;-71
2023/04/08 13:38:21;;;;;;;10.60;8.20;;;;;;;12.86;60.83;100855.85;131231;1254;107499;-72
2023/04/08 13:41:27;;;;;;;9.80;8.20;;;;;;;12.93;60.61;100853.20;131204;1254;107516;-72
2023/04/08 13:44:33;;;;;;;9.30;8.00;;;;;;;13.02;60.70;100850.56;131171;1251;107815;-72
2023/04/08 13:47:38;;;;;;;8.60;7.10;;;;;;;13.19;60.45;100846.69;131385;1251;107394;-71
2023/04/08 13:50:44;;;;;;;9.50;7.60;;;;;;;13.41;60.76;100843.40;131234;1251;107485;-72
2023/04/08 13:53:49;;;;;;;8.60;7.40;;;;;;;13.54;60.44;100834.77;131121;1253;107414;-72
2023/04/08 13:56:56;;;;;;;8.20;7.30;;;;;;;13.63;60.15;100835.83;131139;1253;107883;-71
2023/04/08 14:00:03;;;;;;;8.60;7.50;;;;;;;13.67;59.69;100831.83;131140;1261;107407;-71